Time;durP1;ratioP1;P1;durP2;ratioP2;P2;SDS_P1;SDS_P2;PMS_P1;PMS_P2;Temp;Humidity;BMP_temperature;BMP_pressure;BME280_temperature;BME280_humidity;BME280_pressure;Samples;Min_cycle;Max_cycle;Signal;HPM_P1;HPM_P2
2022/03/11 00:01:45;;;;;;;15.57;11.20;;;7.00;77.50;;;;;;5017958;28;20061;-78
2022/03/11 00:04:11;;;;;;;17.95;9.90;;;6.90;78.00;;;;;;5023532;28;20425;-79
2022/03/11 00:06:55;;;;;;;13.80;9.57;;;6.90;78.00;;;;;;5023081;28;20060;-79
2022/03/11 00:09:22;;;;;;;16.88;9.57;;;6.80;78.70;;;;;;5022779;28;20049;-78
2022/03/11 00:11:48;;;;;;;14.43;9.48;;;6.80;78.80;;;;;;5007521;28;20072;-79
2022/03/11 00:14:14;;;;;;;16.73;9.75;;;;;;;;;;4989915;28;20056;-79
2022/03/11 00:16:41;;;;;;;13.63;10.05;;;;;;;;;;5008939;28;20571;-78
2022/03/11 00:19:08;;;;;;;16.95;10.90;;;;;;;;;;5021876;28;20061;-79
2022/03/11 00:21:34;;;;;;;21.00;11.75;;;;;;;;;;5015523;28;20057;-79
2022/03/11 00:24:00;;;;;;;15.20;10.50;;;;;;;;;;5009362;28;20049;-79
2022/03/11 00:26:26;;;;;;;18.10;10.75;;;;;;;;;;5021834;28;20045;-79
2022/03/11 00:28:53;;;;;;;15.50;9.90;;;;;;;;;;5017247;28;20053;-79
2022/03/11 00:31:22;;;;;;;12.93;9.88;;;;;;;;;;5024002;28;20427;-79
2022/03/11 00:33:48;;;;;;;14.30;9.48;;;;;;;;;;5006935;28;20385;-78
2022/03/11 00:36:14;;;;;;;16.73;11.18;;;;;;;;;;5022847;28;20319;-79
2022/03/11 00:38:40;;;;;;;16.67;10.80;;;;;;;;;;5006085;28;20055;-79
2022/03/11 00:41:12;;;;;;;17.17;11.10;;;;;;;;;;5025948;28;20060;-79
2022/03/11 00:43:38;;;;;;;15.55;10.93;;;;;;;;;;5007676;28;20080;-79
2022/03/11 00:46:07;;;;;;;14.35;10.32;;;;;;;;;;5006672;28;20085;-79
2022/03/11 00:48:34;;;;;;;16.52;11.25;;;;;;;;;;5023173;28;20120;-78
2022/03/11 00:51:00;;;;;;;14.88;9.55;;;;;;;;;;5036426;28;20498;-78
2022/03/11 00:53:29;;;;;;;12.90;10.30;;;;;;;;;;5004964;28;20050;-78
2022/03/11 00:55:56;;;;;;;17.13;10.68;;;;;;;;;;5022372;28;20104;-79
2022/03/11 00:58:23;;;;;;;17.20;11.25;;;;;;;;;;5021972;28;20052;-79
2022/03/11 01:00:49;;;;;;;18.20;11.25;;;;;;;;;;5004989;28;20081;-79
2022/03/11 01:03:15;;;;;;;14.75;10.40;;;;;;;;;;5013636;28;20056;-78
2022/03/11 01:05:41;;;;;;;16.42;10.82;;;;;;;;;;5024655;28;20050;-78
2022/03/11 01:08:07;;;;;;;12.82;9.15;;;;;;;;;;5022572;28;20115;-78
2022/03/11 01:10:33;;;;;;;16.23;10.73;;;;;;;;;;5023380;28;20049;-78
2022/03/11 01:12:59;;;;;;;17.20;11.13;;;;;;;;;;5006682;28;20057;-78
2022/03/11 01:15:25;;;;;;;14.60;9.75;;;;;;;;;;4991488;28;20049;-78
2022/03/11 01:17:52;;;;;;;15.13;10.70;;;;;;;;;;5023739;28;20056;-78
2022/03/11 01:20:20;;;;;;;16.17;10.65;;;;;;;;;;5025286;28;20081;-79
2022/03/11 01:22:47;;;;;;;12.68;10.00;;;;;;;;;;5017445;28;20046;-78
2022/03/11 01:25:16;;;;;;;11.15;8.70;;;;;;;;;;5005914;28;20548;-78
2022/03/11 01:27:42;;;;;;;14.02;10.18;;;;;;;;;;5015723;28;20049;-78
2022/03/11 01:30:09;;;;;;;15.98;10.85;;;;;;;;;;5027874;28;20057;-78
2022/03/11 01:32:36;;;;;;;14.13;9.68;;;;;;;;;;5030836;28;20057;-79
2022/03/11 01:35:02;;;;;;;16.35;10.13;;;;;;;;;;4996792;28;20045;-79
2022/03/11 01:37:28;;;;;;;12.40;8.70;;;;;;;;;;5032550;28;20095;-79
2022/03/11 01:39:54;;;;;;;12.98;8.52;;;;;;;;;;5025942;28;20088;-79
2022/03/11 01:42:21;;;;;;;13.68;9.77;;;;;;;;;;5029412;28;20072;-81
2022/03/11 01:44:52;;;;;;;14.15;9.50;;;;;;;;;;5025197;28;20088;-79
2022/03/11 01:47:18;;;;;;;12.38;8.98;;;;;;;;;;5028240;28;20137;-79
2022/03/11 01:49:48;;;;;;;11.95;8.73;;;;;;;;;;5026833;28;20119;-79
2022/03/11 01:52:14;;;;;;;11.32;8.75;;;;;;;;;;5016098;28;20053;-79
2022/03/11 01:54:42;;;;;;;12.63;8.80;;;;;;;;;;5041982;28;20041;-81
2022/03/11 01:57:11;;;;;;;15.98;9.07;;;;;;;;;;5020323;28;20396;-79
2022/03/11 01:59:44;;;;;;;12.13;8.80;;;;;;;;;;5010629;28;20060;-79
2022/03/11 02:02:10;;;;;;;15.25;9.32;;;;;;;;;;5018053;28;20160;-79
2022/03/11 02:04:36;;;;;;;11.30;7.90;;;;;;;;;;5027980;28;20058;-79
2022/03/11 02:07:04;;;;;;;12.82;8.02;;;;;;;;;;5024659;28;20050;-79
2022/03/11 02:09:30;;;;;;;15.75;8.45;;;;;;;;;;5025222;28;20057;-79
2022/03/11 02:11:57;;;;;;;11.90;8.30;;;;;;;;;;5022264;28;20041;-79
2022/03/11 02:14:26;;;;;;;15.07;8.15;;;;;;;;;;5011453;28;20050;-79
2022/03/11 02:16:55;;;;;;;12.80;8.80;;;;;;;;;;5024022;28;20092;-78
2022/03/11 02:19:24;;;;;;;11.70;7.50;;;;;;;;;;5025015;28;20164;-79
2022/03/11 02:21:53;;;;;;;10.85;7.63;;;;;;;;;;5040939;28;20504;-79
2022/03/11 02:24:19;;;;;;;13.07;9.75;;;;;;;;;;5035536;28;20456;-79
2022/03/11 02:26:46;;;;;;;12.68;7.60;;;;;;;;;;5012905;28;20077;-79
2022/03/11 02:29:12;;;;;;;10.25;7.93;;;;;;;;;;5026806;28;20052;-79
2022/03/11 02:31:44;;;;;;;11.45;8.05;;;;;;;;;;5042268;28;20088;-79
2022/03/11 02:34:11;;;;;;;12.52;8.30;;;;;;;;;;5011180;28;20476;-79
2022/03/11 02:36:37;;;;;;;15.32;8.98;;;;;;;;;;5027931;28;20457;-81
2022/03/11 02:39:06;;;;;;;13.30;7.88;;;;;;;;;;5025710;28;20120;-79
2022/03/11 02:41:33;;;;;;;10.90;8.05;;;;;;;;;;5028704;28;20422;-79
2022/03/11 02:43:59;;;;;;;13.18;8.27;;;;;;;;;;5017624;28;20048;-79
2022/03/11 02:46:26;;;;;;;12.63;7.85;;;;;;;;;;5022807;28;20049;-79
2022/03/11 02:48:52;;;;;;;14.20;8.75;;;;;;;;;;5037767;28;20072;-79
2022/03/11 02:51:18;;;;;;;11.20;7.85;;;;;;;;;;5028771;28;20087;-79
2022/03/11 02:53:47;;;;;;;11.45;6.75;;;;;;;;;;5006912;28;20133;-79
2022/03/11 02:56:13;;;;;;;11.20;8.15;;;;;;;;;;5024437;28;20077;-79
2022/03/11 02:58:39;;;;;;;13.75;8.75;;;;;;;;;;4992423;28;20056;-79
2022/03/11 03:01:09;;;;;;;11.48;7.47;;;;;;;;;;5008266;28;20076;-79
2022/03/11 03:03:38;;;;;;;11.25;8.13;;;;;;;;;;5011174;28;20058;-79
2022/03/11 03:06:10;;;;;;;17.20;9.00;;;;;;;;;;5022501;28;20123;-78
2022/03/11 03:08:36;;;;;;;13.98;7.85;;;;;;;;;;5002563;28;20100;-78
2022/03/11 03:11:02;;;;;;;12.93;8.13;;;;;;;;;;5013030;28;20408;-78
2022/03/11 03:13:31;;;;;;;14.23;8.40;;;;;;;;;;4991372;28;20252;-78
2022/03/11 03:15:57;;;;;;;15.13;9.00;;;;;;;;;;5015919;28;20042;-78
2022/03/11 03:18:24;;;;;;;13.70;8.57;;;;;;;;;;5004203;28;20056;-79
2022/03/11 03:20:53;;;;;;;12.27;7.53;;;;;;;;;;5023210;28;20135;-78
2022/03/11 03:23:19;;;;;;;14.55;9.15;;;;;;;;;;5020050;28;20057;-78
2022/03/11 03:25:45;;;;;;;14.93;9.30;;;;;;;;;;5022277;28;20077;-78
2022/03/11 03:28:12;;;;;;;13.57;8.43;;;;;;;;;;5023122;28;20080;-78
2022/03/11 03:30:38;;;;;;;12.35;8.52;;;;;;;;;;4992262;28;20047;-79
2022/03/11 03:33:05;;;;;;;13.80;8.73;;;;;;;;;;5004192;28;20141;-78
2022/03/11 03:35:31;;;;;;;12.57;9.45;;;;;;;;;;5016836;28;20128;-79
2022/03/11 03:37:58;;;;;;;15.18;9.00;;;;;;;;;;5039750;28;20061;-79
2022/03/11 03:40:24;;;;;;;13.30;9.48;;;;;;;;;;5041245;28;20369;-79
2022/03/11 03:42:53;;;;;;;14.43;9.13;;;;;;;;;;5024207;28;20103;-79
2022/03/11 03:45:23;;;;;;;21.58;9.77;;;;;;;;;;5023407;28;20045;-83
2022/03/11 03:47:52;;;;;;;14.88;8.82;;;;;;;;;;5008385;28;20095;-82
2022/03/11 03:50:21;;;;;;;14.27;9.45;;;;;;;;;;5027536;28;20124;-82
2022/03/11 03:52:47;;;;;;;13.57;9.95;;;;;;;;;;5005145;28;20049;-83
2022/03/11 03:55:14;;;;;;;15.68;9.15;;;;;;;;;;5009262;28;20532;-83
2022/03/11 03:57:40;;;;;;;16.65;10.48;;;;;;;;;;5039845;28;20049;-83
2022/03/11 04:00:15;;;;;;;17.75;10.60;;;;;;;;;;5022818;28;20536;-82
2022/03/11 04:02:48;;;;;;;13.02;9.45;;;;;;;;;;5013072;28;20405;-83
2022/03/11 04:05:18;;;;;;;15.75;10.07;;;;;;;;;;5026713;28;20050;-83
2022/03/11 04:07:45;;;;;;;23.85;9.95;;;;;;;;;;5010152;28;20050;-83
2022/03/11 04:10:12;;;;;;;14.85;9.75;;;;;;;;;;5036474;28;20383;-82
2022/03/11 04:12:39;;;;;;;15.07;10.10;;;;;;;;;;5023304;28;20056;-83
2022/03/11 04:15:08;;;;;;;18.38;10.82;;;;;;;;;;5025121;28;20791;-83
2022/03/11 04:17:34;;;;;;;20.40;11.13;;;;;;;;;;5020598;28;20053;-80
2022/03/11 04:20:01;;;;;;;13.90;9.77;;;;;;;;;;4992427;28;20049;-81
2022/03/11 04:22:27;;;;;;;18.63;10.73;;;;;;;;;;5007191;28;20112;-80
2022/03/11 04:24:53;;;;;;;18.02;11.38;;;;;;;;;;5022088;28;20046;-80
2022/03/11 04:27:21;;;;;;;13.30;9.90;;;;;;;;;;5036597;28;20076;-80
2022/03/11 04:29:50;;;;;;;23.17;12.63;;;;;;;;;;5019550;28;20111;-80
2022/03/11 04:32:16;;;;;;;16.98;10.90;;;;;;;;;;5003393;28;20049;-80
2022/03/11 04:34:45;;;;;;;20.33;11.88;;;;;;;;;;5002180;28;20159;-80
2022/03/11 04:37:13;;;;;;;18.33;12.05;;;;;;;;;;5007261;28;20072;-80
2022/03/11 04:39:39;;;;;;;17.63;11.27;;;;;;;;;;5016458;28;20203;-80
2022/03/11 04:42:06;;;;;;;16.63;10.93;;;;;;;;;;4987319;28;20049;-81
2022/03/11 04:44:32;;;;;;;21.00;12.25;;;;;;;;;;5022846;28;20530;-80
2022/03/11 04:47:01;;;;;;;16.77;11.48;;;;;;;;;;5022067;28;20096;-80
2022/03/11 04:49:28;;;;;;;18.83;12.02;;;;;;;;;;5019524;28;20252;-80
2022/03/11 04:51:54;;;;;;;20.70;12.35;;;;;;;;;;5022854;28;20132;-80
2022/03/11 04:54:21;;;;;;;17.75;11.05;;;;;;;;;;5043233;28;20075;-80
2022/03/11 04:56:54;;;;;;;17.38;12.50;;;;;;;;;;5007109;28;20053;-80
2022/03/11 04:59:22;;;;;;;16.38;11.55;;;;;;;;;;5015163;28;20185;-82
2022/03/11 05:01:51;;;;;;;21.23;12.43;;;;;;;;;;5025603;28;20068;-83
2022/03/11 05:04:20;;;;;;;20.83;11.77;;;;;;;;;;5024701;28;20049;-83
2022/03/11 05:06:49;;;;;;;19.35;12.57;;;;;;;;;;4977796;28;20108;-83
2022/03/11 05:09:15;;;;;;;22.75;13.85;;;;;;;;;;5022498;28;20061;-83
2022/03/11 05:11:48;;;;;;;24.65;12.15;;;;;;;;;;5025922;28;20045;-83
2022/03/11 05:14:26;;;;;;;20.02;12.85;;;;;;;;;;4965656;28;20050;-82
2022/03/11 05:16:52;;;;;;;19.75;12.93;;;;;;;;;;5026017;28;20087;-83
2022/03/11 05:19:24;;;;;;;24.30;14.27;;;;;;;;;;4992690;28;20622;-82
2022/03/11 05:21:53;;;;;;;19.38;13.07;;;;;;;;;;5023044;28;20111;-84
2022/03/11 05:24:19;;;;;;;25.75;14.45;;;;;;;;;;4992696;28;20064;-82
2022/03/11 05:26:46;;;;;;;21.50;12.90;;;;;;;;;;5005302;28;20508;-83
2022/03/11 05:29:12;;;;;;;21.98;12.60;;;;;;;;;;5031760;28;20432;-83
2022/03/11 05:31:41;;;;;;;22.50;14.48;;;;;;;;;;5019473;28;20125;-83
2022/03/11 05:34:08;;;;;;;23.23;12.35;;;;;;;;;;5001797;28;20057;-83
2022/03/11 05:36:35;;;;;;;21.42;15.00;;;;;;;;;;5022549;28;20049;-79
2022/03/11 05:39:02;;;;;;;22.73;14.38;;;;;;;;;;5008198;28;20049;-79
2022/03/11 05:41:28;;;;;;;23.60;14.15;;;;;;;;;;5017450;28;20453;-78
2022/03/11 05:43:54;;;;;;;19.38;13.45;;;;;;;;;;4989177;28;20077;-79
2022/03/11 05:46:21;;;;;;;23.33;14.18;;;;;;;;;;5025444;28;20456;-79
2022/03/11 05:48:47;;;;;;;22.30;14.00;;;6.80;79.30;;;;;;5004582;28;20049;-78
2022/03/11 05:51:15;;;;;;;30.38;14.55;;;4.30;95.20;;;;;;5014766;28;20046;-79
2022/03/11 05:53:44;;;;;;;19.90;13.15;;;4.20;95.00;;;;;;5021125;28;20057;-79
2022/03/11 05:56:13;;;;;;;23.45;14.60;;;4.20;95.10;;;;;;4991528;28;20080;-79
2022/03/11 05:58:38;;;;;;;18.58;13.10;;;4.20;95.30;;;;;;5013537;28;20417;-79
2022/03/11 06:01:04;;;;;;;23.33;15.13;;;4.20;95.20;;;;;;5028760;28;20049;-79
2022/03/11 06:03:33;;;;;;;20.05;12.63;;;4.10;95.40;;;;;;5023897;28;20089;-78
2022/03/11 06:05:59;;;;;;;20.25;12.95;;;4.10;95.20;;;;;;5026123;28;20060;-79
2022/03/11 06:08:25;;;;;;;18.48;13.38;;;4.00;95.20;;;;;;4991165;28;20049;-79
2022/03/11 06:10:51;;;;;;;21.88;13.00;;;4.00;95.30;;;;;;5004360;28;20045;-79
2022/03/11 06:13:17;;;;;;;21.80;13.50;;;4.00;95.40;;;;;;5048336;28;20052;-79
2022/03/11 06:15:43;;;;;;;22.70;14.85;;;;;;;;;;5031628;28;20045;-79
2022/03/11 06:18:18;;;;;;;27.95;16.10;;;4.00;95.00;;;;;;5008978;28;20351;-80
2022/03/11 06:20:44;;;;;;;24.30;15.77;;;4.00;95.30;;;;;;4990014;28;20132;-80
2022/03/11 06:23:10;;;;;;;25.27;13.60;;;4.00;95.90;;;;;;5019958;28;20461;-80
2022/03/11 06:25:36;;;;;;;26.52;15.52;;;3.90;95.80;;;;;;5000705;28;20050;-80
2022/03/11 06:28:02;;;;;;;22.52;14.77;;;3.90;96.00;;;;;;5020982;28;20049;-80
2022/03/11 06:30:28;;;;;;;21.20;14.88;;;3.90;96.20;;;;;;5007814;28;20064;-80
2022/03/11 06:32:57;;;;;;;22.58;14.57;;;3.90;96.20;;;;;;4992874;28;20050;-80
2022/03/11 06:35:22;;;;;;;23.92;15.60;;;3.90;96.00;;;;;;5001712;28;20070;-80
2022/03/11 06:37:52;;;;;;;24.55;14.75;;;4.00;96.20;;;;;;4977866;28;20068;-80
2022/03/11 06:40:21;;;;;;;22.17;15.13;;;3.90;96.10;;;;;;5006800;28;20045;-79
2022/03/11 06:42:50;;;;;;;25.73;15.00;;;3.90;96.30;;;;;;5007547;28;20564;-81
2022/03/11 06:45:19;;;;;;;27.50;14.93;;;3.90;96.30;;;;;;5019664;28;20411;-81
2022/03/11 06:47:46;;;;;;;25.55;15.27;;;3.90;96.10;;;;;;5006817;28;20313;-81
2022/03/11 06:50:12;;;;;;;22.85;13.77;;;;;;;;;;5023386;28;20429;-80
2022/03/11 06:52:40;;;;;;;21.23;15.43;;;;;;;;;;5010933;28;20041;-81
2022/03/11 06:55:06;;;;;;;22.15;14.32;;;;;;;;;;5025291;28;20064;-81
2022/03/11 06:57:35;;;;;;;24.20;14.65;;;;;;;;;;5010492;28;20037;-81
2022/03/11 07:00:03;;;;;;;22.85;15.00;;;;;;;;;;5010590;28;20080;-81
2022/03/11 07:02:30;;;;;;;23.85;15.15;;;;;;;;;;5028069;28;20050;-81
2022/03/11 07:04:56;;;;;;;24.58;15.32;;;;;;;;;;5014452;28;20045;-81
2022/03/11 07:07:33;;;;;;;22.23;15.15;;;;;;;;;;5012216;28;20104;-80
2022/03/11 07:10:00;;;;;;;22.33;14.60;;;;;;;;;;5026378;28;20572;-80
2022/03/11 07:12:31;;;;;;;22.15;14.50;;;;;;;;;;5004611;28;20454;-81
2022/03/11 07:14:59;;;;;;;22.05;13.88;;;;;;;;;;5010151;28;20119;-83
2022/03/11 07:17:31;;;;;;;23.55;15.68;;;;;;;;;;4994117;28;20132;-84
2022/03/11 07:20:00;;;;;;;23.05;14.80;;;;;;;;;;4992498;28;20076;-84
2022/03/11 07:22:27;;;;;;;21.85;14.93;;;;;;;;;;5023955;28;20342;-83
2022/03/11 07:24:53;;;;;;;22.42;16.05;;;;;;;;;;5021829;28;20049;-83
2022/03/11 07:27:19;;;;;;;23.00;15.70;;;;;;;;;;5010443;28;20050;-83
2022/03/11 07:29:45;;;;;;;22.95;15.98;;;;;;;;;;4993801;28;20081;-83
2022/03/11 07:32:12;;;;;;;22.50;14.23;;;;;;;;;;5034481;28;20128;-83
2022/03/11 07:34:38;;;;;;;23.73;14.60;;;;;;;;;;5007752;28;20057;-79
2022/03/11 07:37:06;;;;;;;25.23;17.20;;;;;;;;;;5024315;28;20120;-81
2022/03/11 07:39:36;;;;;;;23.48;15.82;;;;;;;;;;5008922;28;20109;-80
2022/03/11 07:42:03;;;;;;;23.35;14.10;;;;;;;;;;5025898;28;20072;-80
2022/03/11 07:44:29;;;;;;;23.90;15.55;;;;;;;;;;5008021;28;20103;-80
2022/03/11 07:46:57;;;;;;;28.40;16.95;;;;;;;;;;5027108;28;20602;-80
2022/03/11 07:49:23;;;;;;;27.70;16.38;;;;;;;;;;5027306;28;20049;-81
2022/03/11 07:51:49;;;;;;;21.05;15.00;;;;;;;;;;5017064;28;20045;-81
2022/03/11 07:54:15;;;;;;;25.17;15.48;;;;;;;;;;5019877;28;20049;-79
2022/03/11 07:56:42;;;;;;;25.35;14.70;;;;;;;;;;5009473;28;20146;-80
2022/03/11 07:59:08;;;;;;;22.58;14.43;;;;;;;;;;5031711;28;20057;-82
2022/03/11 08:01:37;;;;;;;21.90;14.55;;;;;;;;;;4974829;28;20046;-82
2022/03/11 08:04:08;;;;;;;18.77;14.13;;;;;;;;;;5041631;28;20064;-82
2022/03/11 08:06:36;;;;;;;20.80;13.63;;;;;;;;;;5010170;28;20114;-82
2022/03/11 08:09:05;;;;;;;22.65;15.00;;;;;;;;;;4995051;28;20410;-80
2022/03/11 08:11:31;;;;;;;19.02;13.10;;;;;;;;;;5022634;28;20037;-80
2022/03/11 08:13:57;;;;;;;22.13;13.73;;;;;;;;;;4995719;28;20480;-80
2022/03/11 08:16:24;;;;;;;19.83;13.57;;;;;;;;;;5005492;28;20053;-80
2022/03/11 08:18:50;;;;;;;24.35;15.95;;;;;;;;;;5007269;28;20061;-80
2022/03/11 08:21:19;;;;;;;21.25;14.63;;;;;;;;;;5020289;28;20060;-80
2022/03/11 08:23:48;;;;;;;18.70;13.68;;;;;;;;;;5000552;28;20401;-80
2022/03/11 08:26:15;;;;;;;24.15;14.88;;;;;;;;;;4988981;28;20053;-80
2022/03/11 08:28:41;;;;;;;25.77;13.77;;;4.00;96.30;;;;;;5023182;28;20053;-81
2022/03/11 08:31:07;;;;;;;21.08;13.32;;;5.40;93.20;;;;;;5024004;28;20053;-81
2022/03/11 08:33:36;;;;;;;22.20;14.10;;;5.40;93.10;;;;;;5007380;28;20060;-80
2022/03/11 08:36:02;;;;;;;23.80;15.00;;;;;;;;;;5011201;28;20064;-80
2022/03/11 08:38:28;;;;;;;23.02;14.27;;;;;;;;;;5027498;28;20523;-81
2022/03/11 08:40:54;;;;;;;20.63;13.95;;;;;;;;;;5023233;28;20053;-81
2022/03/11 08:43:22;;;;;;;22.67;13.60;;;;;;;;;;5021309;28;20056;-81
2022/03/11 08:45:48;;;;;;;24.52;14.25;;;;;;;;;;5006947;28;20073;-81
2022/03/11 08:48:14;;;;;;;24.73;14.95;;;;;;;;;;5005984;28;20052;-81
2022/03/11 08:50:40;;;;;;;22.52;14.10;;;;;;;;;;5016602;28;20065;-80
2022/03/11 08:53:06;;;;;;;24.02;14.00;;;;;;;;;;5021251;28;20154;-80
2022/03/11 08:55:32;;;;;;;20.80;13.60;;;;;;;;;;5004066;28;20088;-81
2022/03/11 08:57:59;;;;;;;20.98;14.40;;;;;;;;;;5016584;28;20060;-81
2022/03/11 09:00:25;;;;;;;20.67;13.18;;;;;;;;;;5021794;28;20111;-81
2022/03/11 09:02:51;;;;;;;19.33;13.40;;;;;;;;;;5005056;28;20080;-81
2022/03/11 09:05:20;;;;;;;21.45;13.90;;;;;;;;;;5012693;28;20057;-81
2022/03/11 09:07:48;;;;;;;20.88;15.07;;;;;;;;;;4993372;28;20104;-81
2022/03/11 09:10:20;;;;;;;21.33;14.02;;;;;;;;;;5021030;28;20056;-81
2022/03/11 09:12:47;;;;;;;20.65;13.85;;;;;;;;;;5007789;28;20050;-81
2022/03/11 09:15:19;;;;;;;21.00;14.02;;;;;;;;;;5006068;28;20045;-81
2022/03/11 09:17:45;;;;;;;22.02;14.07;;;;;;;;;;5004918;28;20196;-81
2022/03/11 09:20:15;;;;;;;20.50;14.18;;;;;;;;;;5013045;28;20402;-83
2022/03/11 09:22:41;;;;;;;23.25;13.80;;;;;;;;;;4978021;28;20141;-82
2022/03/11 09:25:08;;;;;;;25.77;14.38;;;;;;;;;;5001228;28;20045;-82
2022/03/11 09:27:34;;;;;;;21.75;13.13;;;;;;;;;;5004392;28;20161;-81
2022/03/11 09:30:07;;;;;;;20.88;13.88;;;;;;;;;;5006298;28;20077;-80
2022/03/11 09:32:34;;;;;;;20.38;13.52;;;;;;;;;;4991986;28;20271;-81
2022/03/11 09:35:12;;;;;;;21.23;11.95;;;;;;;;;;5024569;28;20049;-81
2022/03/11 09:37:42;;;;;;;24.25;13.80;;;;;;;;;;5025668;28;20053;-81
2022/03/11 09:40:10;;;;;;;23.23;13.55;;;;;;;;;;5006731;28;20595;-81
2022/03/11 09:42:39;;;;;;;22.13;14.00;;;;;;;;;;5007024;28;20148;-80
2022/03/11 09:45:06;;;;;;;22.08;13.00;;;;;;;;;;4992216;28;20405;-81
2022/03/11 09:47:32;;;;;;;22.10;13.93;;;;;;;;;;4990119;28;20053;-81
2022/03/11 09:49:58;;;;;;;25.13;12.75;;;;;;;;;;5019474;28;20046;-81
2022/03/11 09:52:25;;;;;;;23.17;14.25;;;;;;;;;;5018141;28;20141;-81
2022/03/11 09:54:52;;;;;;;19.65;13.43;;;;;;;;;;5025204;28;20529;-81
2022/03/11 09:57:19;;;;;;;23.38;14.82;;;;;;;;;;5026524;28;20327;-81
2022/03/11 09:59:48;;;;;;;22.45;14.43;;;;;;;;;;5008801;28;20143;-83
2022/03/11 10:02:16;;;;;;;19.30;13.07;;;;;;;;;;5029601;28;20489;-81
2022/03/11 10:04:50;;;;;;;19.10;13.60;;;;;;;;;;5028007;28;20067;-81
2022/03/11 10:07:26;;;;;;;18.23;13.20;;;;;;;;;;5021733;28;20049;-81
2022/03/11 10:09:53;;;;;;;25.98;16.52;;;;;;;;;;5011998;28;20087;-81
2022/03/11 10:12:29;;;;;;;25.88;15.00;;;;;;;;;;5008576;28;20049;-81
2022/03/11 10:15:04;;;;;;;20.60;14.65;;;;;;;;;;5022199;28;20049;-81
2022/03/11 10:17:37;;;;;;;20.65;14.43;;;;;;;;;;5024815;28;20058;-81
2022/03/11 10:20:14;;;;;;;22.88;14.13;;;;;;;;;;5020538;28;20447;-81
2022/03/11 10:22:41;;;;;;;26.27;14.85;;;;;;;;;;5025809;28;20045;-81
2022/03/11 10:25:19;;;;;;;27.90;15.10;;;5.50;93.10;;;;;;5010371;28;20060;-81
2022/03/11 10:28:15;;;;;;;21.60;15.55;;;8.30;79.90;;;;;;5025985;28;20437;-81
2022/03/11 10:30:44;;;;;;;24.05;15.00;;;8.40;80.00;;;;;;5026440;28;20492;-81
2022/03/11 10:33:16;;;;;;;20.92;15.15;;;;;;;;;;5025533;28;20065;-81
2022/03/11 10:35:45;;;;;;;24.80;13.98;;;;;;;;;;5011399;28;20057;-81
2022/03/11 10:38:19;;;;;;;25.58;14.93;;;;;;;;;;4999798;28;20140;-81
2022/03/11 10:40:52;;;;;;;20.05;14.52;;;;;;;;;;4993055;28;20347;-82
2022/03/11 10:43:21;;;;;;;19.65;12.43;;;;;;;;;;5021974;28;20491;-82
2022/03/11 10:45:51;;;;;;;22.45;14.23;;;;;;;;;;5026201;28;20457;-82
2022/03/11 10:48:41;;;;;;;23.38;15.38;;;;;;;;;;5006974;28;20045;-81
2022/03/11 10:51:24;;;;;;;21.70;14.52;;;8.40;80.60;;;;;;5009649;28;20415;-82
2022/03/11 10:53:57;;;;;;;19.48;14.82;;;8.90;77.20;;;;;;5005504;28;20053;-82
2022/03/11 10:56:34;;;;;;;21.50;14.07;;;;;;;;;;5009540;28;20064;-82
2022/03/11 10:59:12;;;;;;;22.05;14.90;;;;;;;;;;5026523;28;20530;-81
2022/03/11 11:01:39;;;;;;;20.60;14.10;;;;;;;;;;5033442;28;20436;-81
2022/03/11 11:04:08;;;;;;;22.73;15.05;;;;;;;;;;5023740;28;20050;-83
2022/03/11 11:06:38;;;;;;;22.15;15.35;;;;;;;;;;5024789;28;20085;-81
2022/03/11 11:09:05;;;;;;;24.55;14.88;;;;;;;;;;4998115;28;20120;-81
2022/03/11 11:11:34;;;;;;;25.02;14.77;;;8.90;76.70;;;;;;5028062;28;20054;-81
2022/03/11 11:14:05;;;;;;;23.40;15.20;;;;;;;;;;5038106;28;20369;-81
2022/03/11 11:16:38;;;;;;;27.52;15.73;;;;;;;;;;5007692;28;20156;-81
2022/03/11 11:19:05;;;;;;;21.73;14.85;;;;;;;;;;5039952;28;20401;-80
2022/03/11 11:21:31;;;;;;;21.05;14.85;;;;;;;;;;5016593;28;20108;-81
2022/03/11 11:24:04;;;;;;;23.15;14.88;;;;;;;;;;5019217;28;20053;-81
2022/03/11 11:26:35;;;;;;;21.52;15.45;;;;;;;;;;5008417;28;20143;-81
2022/03/11 11:29:03;;;;;;;19.05;14.30;;;;;;;;;;5009620;28;20757;-82
2022/03/11 11:31:30;;;;;;;21.38;15.43;;;;;;;;;;5009960;28;20069;-81
2022/03/11 11:33:56;;;;;;;21.33;15.68;;;;;;;;;;5017455;28;20862;-81
2022/03/11 11:36:37;;;;;;;25.00;16.05;;;;;;;;;;5045767;28;20136;-81
2022/03/11 11:39:08;;;;;;;23.50;15.32;;;;;;;;;;5041153;28;20048;-81
2022/03/11 11:41:35;;;;;;;21.98;15.68;;;;;;;;;;5003490;28;20456;-82
2022/03/11 11:44:02;;;;;;;23.67;15.25;;;;;;;;;;5008909;28;20446;-81
2022/03/11 11:46:29;;;;;;;22.88;15.70;;;;;;;;;;5023549;28;20056;-81
2022/03/11 11:48:56;;;;;;;23.33;16.27;;;;;;;;;;4973804;28;20072;-81
2022/03/11 11:51:24;;;;;;;23.15;14.85;;;;;;;;;;4997759;28;20272;-81
2022/03/11 11:53:54;;;;;;;27.33;16.98;;;;;;;;;;5020362;28;20056;-82
2022/03/11 11:56:30;;;;;;;27.63;16.85;;;;;;;;;;5023762;28;20589;-81
2022/03/11 11:58:57;;;;;;;24.15;15.13;;;;;;;;;;5002627;28;20041;-80
2022/03/11 12:01:42;;;;;;;29.17;16.48;;;;;;;;;;5025813;28;20060;-82
2022/03/11 12:04:30;;;;;;;24.10;16.83;;;;;;;;;;5023470;28;20072;-82
2022/03/11 12:06:56;;;;;;;24.55;15.57;;;;;;;;;;4987810;28;20057;-81
2022/03/11 12:10:01;;;;;;;22.98;15.55;;;;;;;;;;5004304;28;20045;-81
2022/03/11 12:12:33;;;;;;;24.60;16.27;;;;;;;;;;5001354;28;20532;-81
2022/03/11 12:15:04;;;;;;;24.02;15.30;;;;;;;;;;5026238;28;20424;-81
2022/03/11 12:17:37;;;;;;;22.35;14.55;;;;;;;;;;5005946;28;20076;-81
2022/03/11 12:20:22;;;;;;;23.23;17.20;;;;;;;;;;5001644;28;20470;-81
2022/03/11 12:22:54;;;;;;;21.10;14.68;;;;;;;;;;5025638;28;20505;-81
2022/03/11 12:25:27;;;;;;;22.90;15.13;;;;;;;;;;5023920;28;20397;-81
2022/03/11 12:28:16;;;;;;;20.90;15.10;;;;;;;;;;5001305;28;20469;-81
2022/03/11 12:30:49;;;;;;;18.70;14.05;;;;;;;;;;5025345;28;20543;-81
2022/03/11 12:33:16;;;;;;;22.10;14.93;;;;;;;;;;5022109;28;20129;-82
2022/03/11 12:35:42;;;;;;;24.45;14.40;;;;;;;;;;4991920;28;20107;-81
2022/03/11 12:38:13;;;;;;;24.77;14.75;;;;;;;;;;5006750;28;20045;-81
2022/03/11 12:40:40;;;;;;;22.30;15.63;;;;;;;;;;5022829;28;20049;-81
2022/03/11 12:43:08;;;;;;;22.92;15.05;;;;;;;;;;5019117;28;20054;-81
2022/03/11 12:45:42;;;;;;;20.95;14.57;;;;;;;;;;5005215;28;20085;-82
2022/03/11 12:48:10;;;;;;;24.05;15.55;;;;;;;;;;5004172;28;20167;-81
2022/03/11 12:50:37;;;;;;;19.48;14.45;;;;;;;;;;5016194;28;20100;-81
2022/03/11 12:53:04;;;;;;;22.80;15.02;;;;;;;;;;4989387;28;20446;-81
2022/03/11 12:55:33;;;;;;;23.23;14.27;;;;;;;;;;5022582;28;20148;-81
2022/03/11 12:58:02;;;;;;;19.33;13.65;;;;;;;;;;5026543;28;20140;-82
2022/03/11 13:00:29;;;;;;;17.55;13.75;;;;;;;;;;5022255;28;20490;-81
2022/03/11 13:02:56;;;;;;;23.63;14.32;;;;;;;;;;5042476;28;20045;-81
2022/03/11 13:05:25;;;;;;;20.27;13.35;;;;;;;;;;5016107;28;20317;-81
2022/03/11 13:07:52;;;;;;;22.50;14.20;;;;;;;;;;5023828;28;20316;-81
2022/03/11 13:10:24;;;;;;;19.75;14.18;;;;;;;;;;5003471;28;20088;-81
2022/03/11 13:12:51;;;;;;;19.43;13.77;;;;;;;;;;5024292;28;20146;-81
2022/03/11 13:15:27;;;;;;;20.25;12.95;;;;;;;;;;5039464;28;20057;-81
2022/03/11 13:18:01;;;;;;;21.65;13.65;;;;;;;;;;4988510;28;20139;-80
2022/03/11 13:20:48;;;;;;;21.13;14.52;;;;;;;;;;5020919;28;20052;-82
2022/03/11 13:23:22;;;;;;;20.42;13.32;;;;;;;;;;5014924;28;20389;-82
2022/03/11 13:25:53;;;;;;;18.20;13.15;;;;;;;;;;4999011;28;20060;-83
2022/03/11 13:28:20;;;;;;;19.00;14.05;;;;;;;;;;5001022;28;20101;-83
2022/03/11 13:30:46;;;;;;;19.05;12.88;;;12.10;65.40;;;;;;5006519;28;20053;-83
2022/03/11 13:33:35;;;;;;;23.13;14.77;;;12.10;64.70;;;;;;5022255;28;20053;-83
2022/03/11 13:36:10;;;;;;;21.88;14.05;;;;;;;;;;5019001;28;20049;-84
2022/03/11 13:38:42;;;;;;;20.40;14.70;;;;;;;;;;5004432;28;20045;-83
2022/03/11 13:41:09;;;;;;;18.83;12.55;;;;;;;;;;5003736;28;20045;-84
2022/03/11 13:43:36;;;;;;;20.25;13.25;;;;;;;;;;4969825;28;20090;-84
2022/03/11 13:46:02;;;;;;;19.92;13.13;;;;;;;;;;4995361;28;20045;-84
2022/03/11 13:48:30;;;;;;;17.42;13.00;;;;;;;;;;5001540;28;20053;-83
2022/03/11 13:51:02;;;;;;;22.48;14.40;;;;;;;;;;5002195;28;20114;-83
2022/03/11 13:53:29;;;;;;;21.20;13.57;;;;;;;;;;5004873;28;20640;-84
2022/03/11 13:55:59;;;;;;;20.65;13.40;;;;;;;;;;5032167;28;20050;-83
2022/03/11 13:58:34;;;;;;;16.95;12.88;;;;;;;;;;5000069;28;20045;-83
2022/03/11 14:01:10;;;;;;;19.67;13.45;;;;;;;;;;5004621;28;20057;-85
2022/03/11 14:03:43;;;;;;;20.65;12.85;;;;;;;;;;4984562;28;20165;-84
2022/03/11 14:06:10;;;;;;;20.65;13.45;;;;;;;;;;5022206;28;20056;-84
2022/03/11 14:08:36;;;;;;;21.20;13.02;;;;;;;;;;4996954;28;20371;-85
2022/03/11 14:11:03;;;;;;;20.33;13.38;;;;;;;;;;4997643;28;20050;-83
2022/03/11 14:13:32;;;;;;;17.25;12.38;;;;;;;;;;5001339;28;20136;-84
2022/03/11 14:16:05;;;;;;;19.48;13.00;;;;;;;;;;5020722;28;20135;-84